EDLV/NRN METAR and TAF weather

Enter ICAO airport designator
Station Type Date Time Source
EDLV METAR 2020/08/15 10:20 UTC NOAA

EDLV 151020Z 27004KT 230V330 9999 SCT025 25/19 Q1015


Station Type Date Time Source
EDLV Decoded METAR 2020/08/15 10:20 UTC NOAA

Niederrhein, Germany (EDLV) 51-36-09N 006-08-32E
Aug 15, 2020 - 06:20 AM EDT / 2020.08.15 1020 UTC
Wind: from the W (270 degrees) at 5 MPH (4 KT) (direction variable):0
Visibility: greater than 7 mile(s):0
Sky conditions: partly cloudy
Temperature: 77 F (25 C)
Dew Point: 66 F (19 C)
Relative Humidity: 69%
Pressure (altimeter): 29.97 in. Hg (1015 hPa)
ob: EDLV 151020Z 27004KT 230V330 9999 SCT025 25/19 Q1015
cycle: 10

Station Type Date Time Source
EDLV TAF 2020/08/15 06:27 UTC NOAA

TAF EDLV 150500Z 1506/1606 VRB03KT 0500 FG BKN000
BECMG 1506/1509 7000 SCT030
TEMPO 1513/1520 18015G25KT TSRA BKN030CB
BECMG 1600/1603 2000 BR
TEMPO 1603/1606 0500 FG BKN001

Example: see airport list